createdAt,value
2022-11-03T00:00:48.149Z,41.11
2022-11-03T00:02:49.947Z,41.16
2022-11-03T00:04:51.569Z,41.27
2022-11-03T00:06:54.710Z,41.57
2022-11-03T00:09:00.427Z,41.63
2022-11-03T00:11:08.468Z,41.75
2022-11-03T00:13:10.045Z,42.08
2022-11-03T00:15:11.654Z,42.25
2022-11-03T00:17:13.330Z,43.12
2022-11-03T00:19:17.436Z,43.76
2022-11-03T00:21:19.622Z,44.10
2022-11-03T00:23:21.296Z,44.46
2022-11-03T00:25:22.895Z,44.97
2022-11-03T00:27:24.457Z,45.22
2022-11-03T00:29:26.183Z,45.37
2022-11-03T00:31:32.929Z,45.47
2022-11-03T00:33:35.387Z,45.39
2022-11-03T00:35:37.020Z,45.65
2022-11-03T00:37:38.586Z,45.87
2022-11-03T00:39:40.137Z,46.03
2022-11-03T00:41:41.858Z,46.07
2022-11-03T00:43:43.660Z,46.04
2022-11-03T00:45:45.284Z,46.19
2022-11-03T00:48:05.277Z,46.23
2022-11-03T00:50:07.121Z,46.76
2022-11-03T00:52:08.663Z,46.70
2022-11-03T00:54:10.556Z,47.15
2022-11-03T00:56:14.439Z,46.76
2022-11-03T00:58:16.002Z,47.39
2022-11-03T01:00:17.726Z,47.80
2022-11-03T01:02:19.405Z,47.93
2022-11-03T01:04:39.322Z,48.02
2022-11-03T01:06:52.444Z,48.79
2022-11-03T01:08:54.543Z,48.69
2022-11-03T01:11:14.893Z,48.75
2022-11-03T01:13:16.482Z,49.02
2022-11-03T01:15:18.083Z,49.38
2022-11-03T01:17:25.489Z,49.65
2022-11-03T01:19:28.102Z,49.36
2022-11-03T01:21:29.807Z,49.23
2022-11-03T01:23:31.386Z,49.04
2022-11-03T01:25:32.973Z,49.23
2022-11-03T01:27:34.988Z,49.08
2022-11-03T01:29:36.633Z,48.73
2022-11-03T01:31:38.263Z,48.43
2022-11-03T01:33:40.471Z,47.96
2022-11-03T01:35:42.107Z,47.94
2022-11-03T01:37:44.033Z,47.64
2022-11-03T01:39:45.634Z,47.38
2022-11-03T01:41:49.310Z,47.22
2022-11-03T01:44:12.127Z,47.10
2022-11-03T01:46:18.301Z,47.49
2022-11-03T01:48:20.284Z,47.34
2022-11-03T01:50:21.964Z,47.30
2022-11-03T01:52:48.839Z,47.58
2022-11-03T01:54:57.329Z,47.88
2022-11-03T01:57:00.252Z,48.02
2022-11-03T01:59:02.144Z,48.75
2022-11-03T02:01:03.914Z,50.10
2022-11-03T02:03:06.156Z,50.49
2022-11-03T02:05:09.039Z,50.31
2022-11-03T02:07:22.770Z,50.67
2022-11-03T02:09:24.826Z,51.13
2022-11-03T02:11:45.211Z,51.01
2022-11-03T02:13:46.827Z,50.62
2022-11-03T02:15:54.217Z,50.72
2022-11-03T02:17:56.532Z,50.51
2022-11-03T02:20:01.915Z,50.41
2022-11-03T02:22:26.687Z,50.34
2022-11-03T02:24:40.297Z,50.33
2022-11-03T02:26:44.246Z,50.25
2022-11-03T02:28:45.903Z,50.01
2022-11-03T02:30:54.692Z,50.24
2022-11-03T02:33:01.540Z,50.41
2022-11-03T02:35:09.093Z,50.10
2022-11-03T02:37:16.736Z,49.67
2022-11-03T02:39:25.644Z,50.15
2022-11-03T02:41:28.680Z,49.97
2022-11-03T02:43:30.480Z,49.88
2022-11-03T02:45:32.381Z,49.89
2022-11-03T02:47:35.227Z,49.75
2022-11-03T02:49:47.848Z,50.37
2022-11-03T02:51:49.601Z,51.16
2022-11-03T02:54:16.748Z,52.10
2022-11-03T02:56:21.125Z,51.80
2022-11-03T02:58:39.773Z,51.84
2022-11-03T03:01:20.320Z,51.50
2022-11-03T03:03:29.051Z,51.69
2022-11-03T03:05:32.141Z,51.67
2022-11-03T03:07:39.136Z,51.09
2022-11-03T03:09:45.893Z,50.61
2022-11-03T03:11:49.671Z,50.22
2022-11-03T03:13:51.101Z,50.07
2022-11-03T03:16:10.707Z,49.67
2022-11-03T03:18:26.298Z,49.56
2022-11-03T03:20:39.939Z,49.94
2022-11-03T03:23:00.640Z,49.80
2022-11-03T03:25:09.277Z,50.03
2022-11-03T03:27:12.548Z,50.19
2022-11-03T03:29:46.395Z,50.96
2022-11-03T03:31:55.445Z,50.80
2022-11-03T03:34:04.463Z,50.91
2022-11-03T03:36:09.832Z,51.02
2022-11-03T03:38:18.378Z,50.55
2022-11-03T03:40:37.942Z,51.13
2022-11-03T03:42:41.068Z,51.78
2022-11-03T03:44:43.511Z,51.69
2022-11-03T03:46:49.584Z,51.48
2022-11-03T03:48:51.448Z,51.66
2022-11-03T03:50:54.093Z,51.52
2022-11-03T03:52:58.248Z,51.58
2022-11-03T03:54:59.911Z,51.22
2022-11-03T03:57:04.200Z,51.05
2022-11-03T03:59:05.811Z,51.40
2022-11-03T04:01:12.195Z,51.52
2022-11-03T04:03:19.987Z,51.93
2022-11-03T04:05:21.539Z,52.29
2022-11-03T04:07:43.595Z,52.72
2022-11-03T04:09:48.336Z,53.36
2022-11-03T04:12:08.485Z,53.52
2022-11-03T04:14:28.914Z,53.58
2022-11-03T04:16:49.373Z,53.29
2022-11-03T04:19:09.572Z,53.28
2022-11-03T04:21:32.343Z,52.92
2022-11-03T04:23:33.963Z,53.24
2022-11-03T04:25:35.585Z,53.45
2022-11-03T04:27:38.348Z,53.31
2022-11-03T04:29:40.095Z,53.48
2022-11-03T04:31:41.694Z,52.74
2022-11-03T04:33:43.994Z,52.46
2022-11-03T04:35:46.789Z,52.21
2022-11-03T04:37:56.214Z,52.06
2022-11-03T04:40:00.873Z,52.15
2022-11-03T04:42:02.504Z,52.11
2022-11-03T04:44:07.967Z,51.79
2022-11-03T04:46:11.929Z,51.65
2022-11-03T04:48:24.133Z,51.80
2022-11-03T04:50:26.211Z,52.18
2022-11-03T04:52:29.762Z,52.33
2022-11-03T04:54:31.358Z,52.20
2022-11-03T04:56:33.834Z,52.07
2022-11-03T04:58:36.214Z,52.60
2022-11-03T05:00:37.889Z,52.78
2022-11-03T05:02:39.485Z,53.00
2022-11-03T05:04:41.891Z,52.63
2022-11-03T05:06:52.731Z,53.61
2022-11-03T05:09:12.977Z,53.97
2022-11-03T05:11:22.100Z,54.11
2022-11-03T05:13:28.522Z,54.74
2022-11-03T05:15:37.340Z,54.69
2022-11-03T05:17:38.986Z,55.30
2022-11-03T05:19:42.141Z,55.71
2022-11-03T05:21:43.753Z,55.40
2022-11-03T05:23:48.926Z,55.02
2022-11-03T05:25:54.034Z,55.01
2022-11-03T05:27:56.052Z,55.06
2022-11-03T05:30:00.888Z,54.58
2022-11-03T05:32:03.234Z,53.81
2022-11-03T05:34:22.343Z,53.41
2022-11-03T05:36:26.215Z,53.21
2022-11-03T05:38:31.065Z,53.15
2022-11-03T05:40:33.693Z,53.47
2022-11-03T05:42:37.567Z,53.89
2022-11-03T05:44:40.853Z,54.25
2022-11-03T05:46:42.506Z,53.82
2022-11-03T05:48:44.973Z,53.92
2022-11-03T05:50:46.581Z,54.00
2022-11-03T05:52:49.908Z,53.50
2022-11-03T05:54:52.735Z,52.98
2022-11-03T05:56:56.205Z,52.65
2022-11-03T05:58:58.126Z,52.18
2022-11-03T06:01:01.833Z,51.82
2022-11-03T06:03:03.329Z,51.34
2022-11-03T06:05:24.515Z,51.33
2022-11-03T06:07:30.403Z,51.19
2022-11-03T06:09:33.553Z,51.12
2022-11-03T06:11:38.498Z,50.64
2022-11-03T06:13:40.142Z,50.68
2022-11-03T06:15:43.530Z,50.69
2022-11-03T06:17:45.189Z,50.37
2022-11-03T06:19:50.854Z,50.81
2022-11-03T06:21:55.106Z,51.54
2022-11-03T06:23:56.767Z,52.82
2022-11-03T06:25:59.293Z,53.46
2022-11-03T06:28:04.677Z,53.49
2022-11-03T06:30:25.842Z,53.97
2022-11-03T06:32:28.315Z,54.01
2022-11-03T06:34:38.715Z,53.81
2022-11-03T06:36:40.311Z,53.38
2022-11-03T06:38:41.938Z,53.59
2022-11-03T06:40:43.550Z,53.54
2022-11-03T06:42:45.402Z,53.80
2022-11-03T06:44:49.393Z,53.44
2022-11-03T06:46:52.197Z,53.35
2022-11-03T06:49:01.884Z,53.98
2022-11-03T06:51:04.096Z,53.82
2022-11-03T06:53:06.028Z,53.45
2022-11-03T06:55:12.081Z,53.15
2022-11-03T06:57:18.847Z,52.58
2022-11-03T06:59:20.576Z,52.11
2022-11-03T07:01:27.400Z,51.95
2022-11-03T07:03:31.394Z,51.92
2022-11-03T07:05:33.120Z,51.70
2022-11-03T07:07:34.750Z,51.27
2022-11-03T07:09:36.280Z,50.76
2022-11-03T07:11:55.746Z,50.34
2022-11-03T07:13:59.175Z,49.80
2022-11-03T07:16:00.805Z,49.49
2022-11-03T07:18:03.068Z,49.67
2022-11-03T07:20:14.239Z,49.95
2022-11-03T07:22:22.737Z,49.85
2022-11-03T07:24:27.583Z,49.76
2022-11-03T07:26:29.451Z,49.15
2022-11-03T07:28:36.703Z,49.14
2022-11-03T07:30:38.352Z,48.78
2022-11-03T07:32:40.115Z,48.61
2022-11-03T07:34:42.122Z,48.71
2022-11-03T07:36:44.196Z,49.11
2022-11-03T07:38:48.819Z,49.47
2022-11-03T07:40:51.184Z,49.45
2022-11-03T07:42:57.102Z,50.08
2022-11-03T07:44:58.972Z,50.20
2022-11-03T07:47:00.543Z,50.21
2022-11-03T07:49:03.366Z,50.44
2022-11-03T07:51:22.377Z,50.49
2022-11-03T07:53:32.736Z,50.64
2022-11-03T07:55:34.314Z,50.67
2022-11-03T07:57:35.922Z,50.72
2022-11-03T07:59:40.118Z,50.68
2022-11-03T08:01:51.381Z,50.32
2022-11-03T08:03:57.481Z,50.94
2022-11-03T08:05:59.061Z,51.02
2022-11-03T08:08:00.623Z,50.97
2022-11-03T08:10:02.295Z,50.68
2022-11-03T08:12:04.058Z,50.18
2022-11-03T08:14:05.773Z,49.56
2022-11-03T08:16:07.809Z,50.12
2022-11-03T08:18:09.413Z,50.09
2022-11-03T08:20:11.489Z,50.48
2022-11-03T08:22:13.215Z,50.79
2022-11-03T08:24:14.804Z,50.38
2022-11-03T08:26:16.417Z,50.03
2022-11-03T08:28:18.097Z,49.53
2022-11-03T08:30:19.768Z,49.56
2022-11-03T08:32:21.378Z,50.02
2022-11-03T08:34:22.943Z,49.67
2022-11-03T08:36:24.643Z,49.77
2022-11-03T08:38:26.265Z,49.23
2022-11-03T08:40:27.820Z,49.73
2022-11-03T08:42:29.467Z,48.82
2022-11-03T08:44:31.120Z,48.47
2022-11-03T08:46:32.727Z,47.82
2022-11-03T08:48:34.458Z,47.90
2022-11-03T08:50:36.019Z,47.51
2022-11-03T08:52:37.627Z,47.11
2022-11-03T08:54:39.285Z,46.83
2022-11-03T08:56:40.867Z,45.83
2022-11-03T08:58:43.978Z,45.57
2022-11-03T09:00:45.586Z,45.62
2022-11-03T09:02:47.440Z,46.30
2022-11-03T09:04:49.033Z,46.92
2022-11-03T09:06:50.683Z,46.99
2022-11-03T09:11:13.755Z,46.52
2022-11-03T09:13:15.372Z,45.89
2022-11-03T09:15:17.204Z,45.13
2022-11-03T09:17:19.043Z,45.65
2022-11-03T09:19:20.636Z,45.84
2022-11-03T09:21:22.248Z,46.21
2022-11-03T09:23:24.056Z,45.82
2022-11-03T09:25:25.695Z,45.78
2022-11-03T09:27:27.538Z,45.44
2022-11-03T09:29:36.369Z,45.03
2022-11-03T09:31:47.792Z,44.68
2022-11-03T09:33:49.377Z,44.13
2022-11-03T09:35:50.996Z,44.53
2022-11-03T09:37:52.545Z,44.10
2022-11-03T09:39:54.234Z,43.50
2022-11-03T09:41:59.157Z,43.01
2022-11-03T09:44:01.208Z,42.58
2022-11-03T09:46:03.012Z,42.17
2022-11-03T09:48:05.447Z,41.07
2022-11-03T09:50:13.106Z,41.08
2022-11-03T09:52:20.681Z,40.91
2022-11-03T09:54:22.285Z,40.38
2022-11-03T09:56:25.434Z,40.40
2022-11-03T09:58:27.196Z,41.22
2022-11-03T10:00:28.913Z,42.01
2022-11-03T10:02:32.088Z,42.17
2022-11-03T10:04:33.867Z,41.78
2022-11-03T10:06:35.468Z,41.14
2022-11-03T10:08:39.288Z,40.52
2022-11-03T10:10:41.186Z,40.50
2022-11-03T10:12:43.118Z,40.27
2022-11-03T10:14:45.826Z,40.22
2022-11-03T10:16:56.927Z,40.52
2022-11-03T10:18:58.570Z,41.24
2022-11-03T10:21:06.607Z,41.47
2022-11-03T10:23:09.157Z,41.17
2022-11-03T10:25:36.890Z,40.74
2022-11-03T10:27:38.502Z,40.78
2022-11-03T10:29:41.351Z,40.59
2022-11-03T10:31:49.742Z,39.78
2022-11-03T10:33:55.836Z,39.40
2022-11-03T10:36:01.955Z,39.24
2022-11-03T10:38:22.453Z,39.02
2022-11-03T10:40:47.834Z,38.01
2022-11-03T10:42:59.678Z,37.57
2022-11-03T10:45:15.431Z,37.68
2022-11-03T10:47:34.130Z,37.27
2022-11-03T10:49:43.354Z,37.01
2022-11-03T10:51:48.263Z,37.08
2022-11-03T10:53:49.814Z,36.77
2022-11-03T10:55:51.413Z,36.37
2022-11-03T10:57:55.830Z,35.71
2022-11-03T10:59:58.357Z,35.73
2022-11-03T11:02:01.227Z,36.00
2022-11-03T11:04:04.575Z,35.78
2022-11-03T11:06:06.329Z,35.45
2022-11-03T11:08:09.630Z,35.67
2022-11-03T11:26:27.973Z,34.98
2022-11-03T11:28:29.597Z,35.17
2022-11-03T11:30:31.161Z,34.81
2022-11-03T11:32:44.710Z,34.66
2022-11-03T11:34:46.329Z,34.76
2022-11-03T11:37:11.039Z,34.64
2022-11-03T11:39:15.370Z,34.33
2022-11-03T11:41:17.047Z,34.61
2022-11-03T11:43:25.599Z,35.11
2022-11-03T11:46:04.305Z,34.74
2022-11-03T11:48:18.979Z,34.39
2022-11-03T11:50:25.459Z,33.65
2022-11-03T11:52:27.448Z,33.63
2022-11-03T11:54:29.192Z,33.83
2022-11-03T11:56:30.844Z,33.83
2022-11-03T11:58:38.201Z,33.73
2022-11-03T12:00:57.313Z,33.72
2022-11-03T12:03:00.309Z,34.03
2022-11-03T12:05:03.802Z,34.05
2022-11-03T12:07:05.469Z,34.84
2022-11-03T12:09:13.731Z,35.36
2022-11-03T12:11:15.338Z,35.50
2022-11-03T12:13:35.279Z,35.50
2022-11-03T12:15:56.434Z,34.85
2022-11-03T12:17:58.256Z,34.78
2022-11-03T12:19:59.895Z,34.48
2022-11-03T12:22:06.191Z,34.29
2022-11-03T12:24:26.857Z,33.79
2022-11-03T12:26:28.875Z,33.66
2022-11-03T12:28:35.062Z,32.87
2022-11-03T12:30:40.017Z,33.32
2022-11-03T12:32:42.216Z,33.57
2022-11-03T12:34:44.002Z,34.09
2022-11-03T12:36:45.941Z,34.36
2022-11-03T12:38:47.570Z,33.94
2022-11-03T12:40:49.463Z,33.83
2022-11-03T12:42:51.100Z,34.04
2022-11-03T12:44:53.184Z,33.92
2022-11-03T12:46:54.767Z,33.43
2022-11-03T12:48:56.424Z,33.64
2022-11-03T12:50:58.522Z,33.60
2022-11-03T12:53:00.183Z,34.19
2022-11-03T12:55:02.063Z,34.48
2022-11-03T12:57:03.851Z,34.47
2022-11-03T12:59:05.517Z,34.38
2022-11-03T13:01:07.323Z,34.42
2022-11-03T13:03:09.251Z,34.10
2022-11-03T13:05:15.544Z,34.24
2022-11-03T13:07:20.635Z,34.36
2022-11-03T13:09:30.632Z,34.60
2022-11-03T13:11:51.408Z,34.32
2022-11-03T13:13:53.284Z,34.37
2022-11-03T13:15:55.171Z,34.14
2022-11-03T13:18:14.101Z,34.28
2022-11-03T13:20:16.295Z,34.17
2022-11-03T13:22:18.202Z,34.37
2022-11-03T13:24:20.338Z,33.91
2022-11-03T13:26:22.059Z,34.33
2022-11-03T13:28:23.742Z,34.29
2022-11-03T13:30:26.756Z,34.38
2022-11-03T13:32:28.858Z,34.36
2022-11-03T13:34:31.085Z,34.54
2022-11-03T13:36:42.093Z,34.32
2022-11-03T13:38:43.968Z,34.16
2022-11-03T13:41:06.973Z,34.63
2022-11-03T13:43:07.650Z,34.60
2022-11-03T13:45:10.381Z,34.18
2022-11-03T13:47:12.350Z,34.08
2022-11-03T13:50:07.936Z,33.98
2022-11-03T13:51:35.660Z,34.03
2022-11-03T13:56:05.220Z,34.17
2022-11-03T14:00:32.525Z,34.06
2022-11-03T14:04:55.796Z,34.60
2022-11-03T14:06:57.697Z,34.66
2022-11-03T14:08:59.584Z,34.48
2022-11-03T14:11:21.201Z,34.55
2022-11-03T14:13:22.842Z,34.42
2022-11-03T14:15:24.487Z,34.09
2022-11-03T14:17:26.314Z,34.03
2022-11-03T14:19:36.459Z,34.36
2022-11-03T14:21:40.773Z,34.27
2022-11-03T14:23:42.370Z,34.03
2022-11-03T14:25:44.001Z,34.00
2022-11-03T14:27:45.942Z,34.27
2022-11-03T14:29:50.937Z,34.40
2022-11-03T14:31:52.702Z,34.41
2022-11-03T14:33:54.363Z,34.90
2022-11-03T14:35:55.957Z,34.69
2022-11-03T14:37:57.631Z,34.97
2022-11-03T14:39:59.241Z,34.90
2022-11-03T14:42:03.872Z,35.09
2022-11-03T14:44:06.371Z,35.14
2022-11-03T14:46:08.052Z,35.41
2022-11-03T14:48:09.976Z,35.51
2022-11-03T14:50:11.835Z,35.90
2022-11-03T14:52:14.468Z,35.93
2022-11-03T14:54:16.134Z,36.07
2022-11-03T14:56:17.825Z,36.25
2022-11-03T14:58:19.492Z,36.55
2022-11-03T15:00:21.605Z,36.34
2022-11-03T15:02:23.342Z,36.85
2022-11-03T15:04:25.062Z,36.85
2022-11-03T15:06:26.681Z,37.12
2022-11-03T15:08:29.949Z,37.27
2022-11-03T15:10:31.589Z,37.53
2022-11-03T15:12:33.176Z,37.67
2022-11-03T15:14:35.040Z,37.81
2022-11-03T15:16:36.959Z,37.97
2022-11-03T15:18:38.639Z,38.23
2022-11-03T15:20:40.460Z,38.30
2022-11-03T15:27:12.866Z,38.66
2022-11-03T15:29:14.482Z,38.88
2022-11-03T15:31:16.178Z,39.26
2022-11-03T15:33:17.942Z,39.23
2022-11-03T15:35:19.686Z,39.58
2022-11-03T15:37:21.371Z,39.61
2022-11-03T15:39:23.072Z,39.78
2022-11-03T15:41:24.893Z,39.79
2022-11-03T15:43:26.493Z,40.00
2022-11-03T15:45:28.145Z,40.13
2022-11-03T15:47:30.038Z,40.18
2022-11-03T15:49:31.675Z,40.20
2022-11-03T15:51:33.286Z,40.21
2022-11-03T15:53:34.926Z,40.10
2022-11-03T15:55:36.524Z,40.37
2022-11-03T15:57:38.153Z,40.54
2022-11-03T15:59:40.264Z,40.57
2022-11-03T16:01:42.565Z,40.75
2022-11-03T16:03:44.261Z,40.73
2022-11-03T16:05:45.877Z,40.62
2022-11-03T16:07:47.587Z,40.72
2022-11-03T16:09:49.740Z,41.30
2022-11-03T16:11:51.551Z,42.43
2022-11-03T16:13:53.214Z,42.30
2022-11-03T16:15:54.885Z,42.69
2022-11-03T16:18:02.802Z,42.97
2022-11-03T16:20:05.038Z,42.87
2022-11-03T16:22:06.626Z,42.56
2022-11-03T16:24:08.614Z,42.73
2022-11-03T16:26:10.425Z,42.66
2022-11-03T16:28:12.182Z,42.74
2022-11-03T16:30:14.224Z,42.87
2022-11-03T16:32:15.791Z,42.83
2022-11-03T16:34:36.407Z,42.98
2022-11-03T16:36:38.073Z,43.25
2022-11-03T16:38:39.796Z,43.55
2022-11-03T16:40:42.459Z,43.37
2022-11-03T16:42:44.319Z,43.46
2022-11-03T16:44:45.973Z,43.47
2022-11-03T16:46:47.568Z,43.34
2022-11-03T16:48:49.297Z,43.87
2022-11-03T16:50:54.221Z,44.04
2022-11-03T16:52:58.386Z,43.49
2022-11-03T16:55:00.176Z,43.02
2022-11-03T16:57:01.892Z,42.67
2022-11-03T16:59:03.499Z,42.57
2022-11-03T17:01:05.548Z,42.65
2022-11-03T17:03:07.542Z,42.54
2022-11-03T17:05:10.887Z,42.76
2022-11-03T17:07:12.686Z,42.29
2022-11-03T17:09:14.315Z,42.58
2022-11-03T17:11:15.928Z,42.37
2022-11-03T17:13:17.529Z,42.43
2022-11-03T17:15:19.133Z,42.56
2022-11-03T17:17:20.759Z,42.82
2022-11-03T17:19:22.524Z,43.16
2022-11-03T17:21:25.582Z,43.57
2022-11-03T17:23:27.191Z,44.14
2022-11-03T17:25:29.037Z,44.56
2022-11-03T17:27:50.002Z,44.44
2022-11-03T17:29:58.010Z,44.82
2022-11-03T17:31:59.975Z,44.69
2022-11-03T17:34:01.599Z,45.12
2022-11-03T17:36:03.224Z,44.88
2022-11-03T17:38:08.659Z,44.86
2022-11-03T17:40:16.700Z,44.69
2022-11-03T17:42:24.852Z,44.46
2022-11-03T17:44:26.496Z,44.11
2022-11-03T17:46:28.073Z,44.41
2022-11-03T17:48:29.652Z,44.54
2022-11-03T17:50:31.530Z,44.30
2022-11-03T17:52:33.395Z,44.17
2022-11-03T17:54:35.050Z,44.59
2022-11-03T17:56:36.652Z,44.72
2022-11-03T17:58:44.888Z,44.71
2022-11-03T18:00:48.144Z,45.12
2022-11-03T18:02:50.777Z,45.23
2022-11-03T18:05:15.450Z,45.27
2022-11-03T18:07:23.392Z,45.20
2022-11-03T18:09:25.006Z,45.62
2022-11-03T18:11:47.519Z,45.64
2022-11-03T18:13:50.293Z,45.71
2022-11-03T18:16:27.082Z,45.72
2022-11-03T18:18:34.645Z,45.89
2022-11-03T18:20:36.625Z,46.08
2022-11-03T18:22:38.268Z,46.01
2022-11-03T18:24:39.855Z,46.12
2022-11-03T18:26:41.919Z,46.32
2022-11-03T18:28:43.743Z,46.42
2022-11-03T18:30:46.503Z,46.42
2022-11-03T18:32:49.048Z,46.45
2022-11-03T18:34:50.676Z,46.37
2022-11-03T18:36:52.801Z,46.20
2022-11-03T18:38:56.797Z,46.34
2022-11-03T18:40:58.245Z,46.11
2022-11-03T18:42:59.893Z,46.33
2022-11-03T18:45:03.072Z,46.76
2022-11-03T18:47:06.054Z,46.72
2022-11-03T18:49:07.767Z,46.47
2022-11-03T18:51:09.613Z,46.09
2022-11-03T18:53:13.683Z,46.11
2022-11-03T18:55:16.318Z,46.12
2022-11-03T18:57:21.977Z,46.28
2022-11-03T18:59:25.831Z,46.63
2022-11-03T19:01:27.917Z,46.66
2022-11-03T19:03:29.621Z,46.66
2022-11-03T19:05:33.618Z,46.98
2022-11-03T19:07:35.975Z,47.26
2022-11-03T19:09:37.821Z,47.37
2022-11-03T19:11:39.841Z,47.56
2022-11-03T19:13:44.447Z,47.94
2022-11-03T19:15:48.040Z,48.12
2022-11-03T19:17:52.212Z,48.16
2022-11-03T19:19:54.231Z,47.92
2022-11-03T19:21:55.891Z,47.68
2022-11-03T19:23:59.689Z,47.98
2022-11-03T19:26:01.534Z,48.30
2022-11-03T19:28:03.188Z,48.80
2022-11-03T19:30:05.893Z,49.21
2022-11-03T19:32:16.477Z,49.30
2022-11-03T19:34:23.673Z,49.12
2022-11-03T19:36:25.476Z,49.09
2022-11-03T19:38:27.129Z,49.32
2022-11-03T19:40:28.902Z,49.31
2022-11-03T19:42:37.018Z,49.05
2022-11-03T19:44:38.928Z,49.36
2022-11-03T19:46:42.059Z,49.31
2022-11-03T19:48:44.096Z,49.37
2022-11-03T19:50:46.153Z,49.66
2022-11-03T19:52:50.989Z,49.75
2022-11-03T19:54:53.403Z,49.55
2022-11-03T19:56:55.067Z,49.37
2022-11-03T19:58:56.856Z,49.43
2022-11-03T20:00:59.443Z,49.41
2022-11-03T20:03:03.373Z,49.44
2022-11-03T20:05:05.233Z,49.42
2022-11-03T20:07:07.461Z,49.43
2022-11-03T20:09:15.557Z,49.21
2022-11-03T20:11:17.261Z,49.01
2022-11-03T20:13:23.734Z,48.93
2022-11-03T20:15:25.493Z,48.69
2022-11-03T20:17:27.342Z,48.84
2022-11-03T20:19:28.939Z,48.75
2022-11-03T20:21:34.496Z,48.65
2022-11-03T20:23:39.251Z,48.35
2022-11-03T20:25:40.861Z,48.51
2022-11-03T20:27:42.462Z,48.59
2022-11-03T20:29:44.107Z,48.56
2022-11-03T20:31:45.846Z,48.52
2022-11-03T20:33:47.783Z,48.85
2022-11-03T20:35:51.503Z,49.45
2022-11-03T20:37:55.114Z,50.62
2022-11-03T20:39:56.668Z,51.70
2022-11-03T20:41:58.423Z,52.26
2022-11-03T20:44:00.020Z,52.95
2022-11-03T20:46:01.917Z,53.29
2022-11-03T20:48:03.645Z,53.52
2022-11-03T20:50:05.490Z,53.60
2022-11-03T20:52:12.975Z,52.96
2022-11-03T20:54:20.189Z,52.50
2022-11-03T20:56:24.488Z,52.17
2022-11-03T20:58:26.091Z,51.84
2022-11-03T21:00:28.362Z,51.67
2022-11-03T21:02:30.075Z,51.29
2022-11-03T21:04:31.800Z,51.18
2022-11-03T21:06:33.394Z,51.18
2022-11-03T21:08:34.963Z,50.98
2022-11-03T21:10:36.538Z,51.04
2022-11-03T21:12:38.747Z,50.63
2022-11-03T21:15:01.718Z,50.62
2022-11-03T21:17:21.704Z,50.69
2022-11-03T21:19:42.225Z,50.72
2022-11-03T21:21:43.881Z,50.58
2022-11-03T21:23:45.468Z,50.40
2022-11-03T21:25:48.042Z,50.77
2022-11-03T21:27:49.848Z,50.47
2022-11-03T21:29:59.437Z,50.59
2022-11-03T21:32:01.493Z,50.56
2022-11-03T21:34:03.131Z,50.46
2022-11-03T21:36:05.004Z,50.35
2022-11-03T21:38:06.977Z,50.53
2022-11-03T21:40:10.504Z,50.36
2022-11-03T21:42:32.548Z,50.84
2022-11-03T21:44:34.909Z,51.01
2022-11-03T21:46:38.658Z,51.03
2022-11-03T21:48:58.908Z,51.23
2022-11-03T21:51:02.746Z,51.32
2022-11-03T21:53:04.207Z,51.75
2022-11-03T21:55:06.002Z,52.04
2022-11-03T21:57:09.355Z,52.62
2022-11-03T21:59:10.937Z,52.44
2022-11-03T22:01:12.659Z,52.54
2022-11-03T22:03:14.367Z,52.45
2022-11-03T22:05:16.024Z,52.12
2022-11-03T22:07:17.577Z,51.90
2022-11-03T22:09:19.239Z,51.89
2022-11-03T22:11:23.502Z,51.47
2022-11-03T22:13:25.067Z,51.32
2022-11-03T22:15:45.368Z,51.50
2022-11-03T22:17:46.921Z,51.39
2022-11-03T22:20:07.295Z,51.71
2022-11-03T22:22:33.124Z,51.64
2022-11-03T22:24:53.406Z,51.69
2022-11-03T22:26:59.920Z,51.68
2022-11-03T22:29:20.224Z,51.67
2022-11-03T22:31:40.533Z,52.05
2022-11-03T22:34:01.092Z,51.87
2022-11-03T22:36:22.078Z,51.68
2022-11-03T22:38:43.680Z,51.63
2022-11-03T22:41:06.747Z,51.91
2022-11-03T22:43:27.875Z,51.61
2022-11-03T22:45:48.170Z,51.98
2022-11-03T22:47:57.692Z,51.99
2022-11-03T22:49:59.458Z,51.59
2022-11-03T22:52:01.106Z,51.92
2022-11-03T22:54:11.987Z,51.91
2022-11-03T22:56:13.801Z,51.92
2022-11-03T22:58:15.476Z,51.87
2022-11-03T23:00:20.501Z,52.14
2022-11-03T23:02:22.148Z,52.20
2022-11-03T23:04:24.144Z,52.57
2022-11-03T23:06:27.925Z,53.40
2022-11-03T23:08:29.923Z,54.09
2022-11-03T23:10:31.804Z,54.05
2022-11-03T23:12:33.422Z,54.48
2022-11-03T23:14:58.176Z,54.21
2022-11-03T23:16:59.733Z,53.82
2022-11-03T23:19:20.284Z,53.61
2022-11-03T23:21:21.949Z,53.75
2022-11-03T23:23:42.003Z,53.36
2022-11-03T23:25:43.611Z,53.14
2022-11-03T23:27:45.319Z,53.00
2022-11-03T23:29:46.870Z,53.07
2022-11-03T23:31:50.048Z,53.37
2022-11-03T23:33:51.699Z,53.49
2022-11-03T23:35:53.545Z,53.31
2022-11-03T23:37:55.323Z,53.31
2022-11-03T23:39:56.955Z,53.10
2022-11-03T23:41:58.569Z,53.03
2022-11-03T23:44:00.157Z,53.46
2022-11-03T23:46:20.288Z,52.67
2022-11-03T23:48:40.756Z,53.12
2022-11-03T23:50:43.572Z,53.62
2022-11-03T23:52:45.167Z,53.22
2022-11-03T23:54:46.768Z,53.79
2022-11-03T23:57:07.349Z,53.74
2022-11-03T23:59:09.495Z,53.71
